Latest Coastal Weather Observations for Shark Bay Airport

IDW60701

Issued at 9:22 am WST Saturday 5 September 2015 (issued every 10 minutes, with the page automatically refreshed every 10 minutes)

About coastal observations | Map of coastal stations | Coastal observations for WA | Marine services | Other Formats
Station Details ID: 006105 Name: SHARK BAY AIRPORT Lat: -25.89 Lon: 113.58 Height: 33.8 m
Data from the previous 72 hours. | See also: Recent months at Shark Bay Airport
Date/Time
WST
Temp

°C
Wind Pressure Rain
since 9am
mm
Weather Cloud Vis
km
Sea
Height
m
Swell
Dir
 
Speed
knots
Gust
knots
hPa Trend Height
m
Period
s
Dir
05/09:00am 20.1 SSW 7 10 1022.0 - 0.0 - - - - - - -
05/08:30am 19.5 SSW 8 11 1021.9 - 0.0 - - - - - - -
05/08:00am 17.9 SW 3 5 1021.6 - 0.0 - - - - - - -
05/07:30am 16.3 CALM 0 0 1021.3 - 0.0 - - - - - - -
05/07:00am 15.7 SSW 4 4 1020.9 - 0.0 - - - - - - -
05/06:30am 14.9 ENE 1 3 1020.3 - 0.0 - - - - - - -
05/06:00am 14.6 CALM 0 0 1019.7 - 0.0 - - - - - - -
05/05:30am 14.7 CALM 0 1 1019.3 - 0.0 - - - - - - -
05/05:00am 14.9 CALM 0 0 1019.1 - 0.0 - - - - - - -
05/04:30am 15.0 CALM 0 0 1019.0 - 0.0 - - - - - - -
05/04:00am 15.1 SW 4 5 1018.9 - 0.0 - - - - - - -
05/03:30am 14.7 WSW 5 6 1019.2 - 0.0 - - - - - - -
05/03:00am 14.4 SW 4 5 1019.3 - 0.0 - - - - - - -
05/02:30am 14.4 SW 5 6 1019.3 - 0.0 - - - - - - -
05/02:00am 13.7 SW 4 5 1019.3 - 0.0 - - - - - - -
05/01:30am 13.8 WSW 5 6 1019.6 - 0.0 - - - - - - -
05/01:00am 15.3 SSW 5 6 1019.7 - 0.0 - - - - - - -
05/12:30am 14.7 S 5 6 1019.8 - 0.0 - - - - - - -
05/12:00am 16.0 SSW 6 7 1020.2 - 0.0 - - - - - - -
 
Date/Time
WST
Temp

°C
Wind Pressure Rain
since 9am
mm
Weather Cloud Vis
km
Sea
Height
m
Swell
Dir
 
Speed
knots
Gust
knots
hPa Trend Height
m
Period
s
Dir
04/11:30pm 16.2 SSW 7 9 1020.4 - 0.0 - - - - - - -
04/11:00pm 16.2 SSW 8 11 1020.6 - 0.0 - - - - - - -
04/10:30pm 16.5 SSW 7 9 1020.8 - 0.0 - - - - - - -
04/10:00pm 17.3 SSW 8 10 1020.9 - 0.0 - - - - - - -
04/09:30pm 17.3 SSW 8 10 1020.8 - 0.0 - - - - - - -
04/09:00pm 17.1 SSW 9 11 1020.8 - 0.0 - - - - - - -
04/08:30pm 17.0 SSW 9 11 1020.7 - 0.0 - - - - - - -
04/08:00pm 17.2 SW 8 10 1020.6 - 0.0 - - - - - - -
04/07:30pm 17.4 SW 8 11 1020.0 - 0.0 - - - - - - -
04/07:00pm 17.4 SW 8 9 1019.6 - 0.0 - - - - - - -
04/06:30pm 17.6 SW 6 7 1019.4 - 0.0 - - - - - - -
04/06:00pm 18.9 WSW 6 7 1019.2 - 0.0 - - - - - - -
04/05:30pm 19.7 WSW 6 8 1018.7 - 0.0 - - - - - - -
04/05:00pm 20.2 WSW 8 11 1018.5 - 0.0 - - - - - - -
04/04:30pm 20.9 SW 7 9 1018.2 - 0.0 - - - - - - -
04/04:00pm 21.4 SW 7 11 1017.9 - 0.0 - - - - - - -
04/03:30pm 21.1 SW 7 11 1018.1 - 0.0 - - - - - - -
04/03:00pm 21.4 WSW 9 13 1018.2 - 0.0 - - - - - - -
04/02:30pm 21.5 SW 10 15 1018.2 - 0.0 - - - - - - -
04/02:00pm 21.4 WSW 9 14 1018.6 - 0.0 - - - - - - -
04/01:30pm 22.2 WSW 7 11 1018.6 - 0.0 - - - - - - -
04/01:00pm 21.2 SW 9 14 1019.0 - 0.0 - - - - - - -
04/12:30pm 20.8 SW 7 13 1019.1 - 0.0 - - - - - - -
04/12:00pm 20.5 SSW 6 10 1019.4 - 0.0 - - - - - - -
04/11:30am 20.4 SW 8 12 1019.8 - 0.0 - - - - - - -
04/11:00am 20.4 SW 9 14 1020.1 - 0.0 - - - - - - -
04/10:30am 20.4 SW 8 11 1020.0 - 0.0 - - - - - - -
04/10:00am 19.4 WSW 9 13 1020.0 - 0.0 - - - - - - -
04/09:30am 19.5 SW 7 10 1019.9 - 0.0 - - - - - - -
04/09:00am 18.3 E 3 4 1019.9 - 0.0 - - - - - - -
04/08:30am 17.1 E 4 6 1019.9 - 0.0 - - - - - - -
04/08:00am 13.5 ENE 4 5 1019.8 - 0.0 - - - - - - -
04/07:30am 11.5 ENE 4 5 1019.6 - 0.0 - - - - - - -
04/07:00am 9.4 ENE 4 5 1019.2 - 0.0 - - - - - - -
04/06:30am 7.4 E 4 5 1018.8 - 0.0 - - - - - - -
04/06:00am 7.7 ENE 5 5 1018.6 - 0.0 - - - - - - -
04/05:30am 8.7 ENE 4 5 1018.5 - 0.0 - - - - - - -
04/05:00am 7.5 E 4 4 1018.1 - 0.0 - - - - - - -
04/04:30am 9.5 SE 4 4 1017.9 - 0.0 - - - - - - -
04/04:00am 10.2 SE 5 5 1017.8 - 0.0 - - - - - - -
04/03:30am 9.2 ESE 3 4 1017.8 - 0.0 - - - - - - -
04/03:00am 11.5 S 6 7 1017.9 - 0.0 - - - - - - -
04/02:30am 11.7 S 6 6 1018.0 - 0.0 - - - - - - -
04/02:00am 11.5 S 6 6 1017.9 - 0.0 - - - - - - -
04/01:30am 11.5 S 6 6 1018.2 - 0.0 - - - - - - -
04/01:00am 12.0 S 7 8 1018.5 - 0.0 - - - - - - -
04/12:30am 12.0 S 7 7 1018.9 - 0.0 - - - - - - -
04/12:00am 13.5 SSW 8 9 1019.0 - 0.0 - - - - - - -
 
Date/Time
WST
Temp

°C
Wind Pressure Rain
since 9am
mm
Weather Cloud Vis
km
Sea
Height
m
Swell
Dir
 
Speed
knots
Gust
knots
hPa Trend Height
m
Period
s
Dir
03/11:30pm 13.4 SSW 7 9 1019.1 - 0.0 - - - - - - -
03/11:00pm 13.1 S 7 8 1019.2 - 0.0 - - - - - - -
03/10:30pm 13.8 SSW 8 9 1019.3 - 0.0 - - - - - - -
03/10:00pm 13.4 S 7 8 1019.2 - 0.0 - - - - - - -
03/09:30pm 14.5 S 7 9 1019.2 - 0.0 - - - - - - -
03/09:00pm 15.2 SSW 8 10 1019.3 - 0.0 - - - - - - -
03/08:30pm 16.1 SSW 9 12 1019.1 - 0.0 - - - - - - -
03/08:00pm 16.3 SSW 9 11 1019.1 - 0.0 - - - - - - -
03/07:30pm 16.6 SSW 10 13 1018.9 - 0.0 - - - - - - -
03/07:00pm 17.1 SSW 9 11 1018.8 - 0.0 - - - - - - -
03/06:30pm 17.6 SW 9 11 1018.5 - 0.0 - - - - - - -
03/06:00pm 18.7 SW 9 13 1018.1 - 0.0 - - - - - - -
03/05:30pm 19.9 SW 12 16 1017.8 - 0.0 - - - - - - -
03/05:00pm 21.1 SSW 10 14 1017.7 - 0.0 - - - - - - -
03/04:30pm 21.7 SW 11 16 1017.6 - 0.0 - - - - - - -
03/04:00pm 22.9 SW 10 13 1017.6 - 0.0 - - - - - - -
03/03:30pm 22.7 SW 11 14 1017.5 - 0.0 - - - - - - -
03/03:00pm 23.1 SSW 11 14 1017.4 - 0.0 - - - - - - -
03/02:30pm 23.4 SSW 12 16 1017.6 - 0.0 - - - - - - -
03/02:00pm 22.9 SSW 12 15 1017.5 - 0.0 - - - - - - -
03/01:30pm 22.8 SSW 10 15 1017.9 - 0.0 - - - - - - -
03/01:00pm 22.2 SW 10 14 1018.1 - 0.0 - - - - - - -
03/12:30pm 22.4 SW 10 12 1018.6 - 0.0 - - - - - - -
03/12:00pm 21.4 SW 9 11 1018.9 - 0.0 - - - - - - -
03/11:30am 21.3 SW 7 11 1019.3 - 0.0 - - - - - - -
03/11:00am 21.1 SW 7 10 1019.5 - 0.0 - - - - - - -
03/10:30am 20.8 SSW 2 6 1019.8 - 0.0 - - - - - - -
03/10:00am 19.1 S 4 5 1019.8 - 0.0 - - - - - - -
03/09:30am 18.1 SE 7 9 1019.4 - 0.0 - - - - - - -
03/09:00am 16.2 SSE 5 9 1019.4 - 0.0 - - - - - - -
03/08:30am 13.9 S 5 6 1019.1 - 0.0 - - - - - - -
03/08:00am 11.6 SSE 6 7 1018.9 - 0.0 - - - - - - -
03/07:30am 9.3 SSE 5 6 1018.7 - 0.0 - - - - - - -
03/07:00am 7.4 SW 7 7 1018.7 - 0.0 - - - - - - -
03/06:30am 7.6 SW 5 6 1018.2 - 0.0 - - - - - - -
03/06:00am 8.0 SSE 7 8 1017.8 - 0.0 - - - - - - -
03/05:30am 7.9 S 4 5 1017.7 - 0.0 - - - - - - -
03/05:00am 8.0 SSE 5 8 1017.5 - 0.0 - - - - - - -
03/04:30am 8.3 SE 7 8 1017.1 - 0.0 - - - - - - -
03/04:00am 8.3 SE 7 7 1017.1 - 0.0 - - - - - - -
03/03:30am 8.7 SSE 8 8 1017.4 - 0.0 - - - - - - -
03/03:00am 9.3 SSE 6 7 1017.6 - 0.0 - - - - - - -
03/02:30am 10.1 SSE 5 6 1017.8 - 0.0 - - - - - - -
03/02:00am 11.0 SSE 7 9 1018.1 - 0.0 - - - - - - -
03/01:30am 11.5 SSE 7 8 1018.2 - 0.0 - - - - - - -
03/01:00am 12.8 S 8 9 1018.9 - 0.0 - - - - - - -
03/12:30am 13.4 S 8 10 1018.8 - 0.0 - - - - - - -
03/12:00am 13.9 S 9 11 1019.1 - 0.0 - - - - - - -
 
Date/Time
WST
Temp

°C
Wind Pressure Rain
since 9am
mm
Weather Cloud Vis
km
Sea
Height
m
Swell
Dir
 
Speed
knots
Gust
knots
hPa Trend Height
m
Period
s
Dir
02/11:30pm 14.2 SSW 10 13 1019.3 - 0.0 - - - - - - -
02/11:00pm 14.2 S 9 12 1019.5 - 0.0 - - - - - - -
02/10:30pm 14.5 S 10 13 1019.7 - 0.0 - - - - - - -
02/10:00pm 14.5 S 10 13 1019.8 - 0.0 - - - - - - -
02/09:30pm 14.6 S 11 15 1019.9 - 0.0 - - - - - - -
02/09:00pm 14.7 S 11 13 1019.9 - 0.0 - - - - - - -
02/08:30pm 14.7 S 11 14 1019.7 - 0.0 - - - - - - -
02/08:00pm 14.8 S 10 13 1019.7 - 0.0 - - - - - - -
02/07:30pm 15.5 SSW 12 18 1019.5 - 0.0 - - - - - - -
02/07:00pm 15.7 SSW 11 13 1019.2 - 0.0 - - - - - - -
02/06:30pm 15.5 SSW 9 11 1018.8 - 0.0 - - - - - - -
02/06:00pm 16.8 SSW 9 13 1018.4 - 0.0 - - - - - - -
02/05:30pm 18.1 S 12 17 1017.8 - 0.0 - - - - - - -
02/05:00pm 19.9 SE 9 14 1017.7 - 0.0 - - - - - - -
02/04:30pm 20.2 SE 9 13 1017.6 - 0.0 - - - - - - -
02/04:00pm 20.4 S 9 13 1017.6 - 0.0 - - - - - - -
02/03:30pm 19.9 SSW 9 16 1017.9 - 0.0 - - - - - - -
02/03:00pm 19.6 SSW 13 17 1018.2 - 0.0 - - - - - - -
02/02:30pm 19.2 SW 14 19 1018.8 - 0.0 - - - - - - -
02/02:00pm 20.1 SW 13 19 1019.0 - 0.0 - - - - - - -
02/01:30pm 20.2 SSE 8 15 1019.2 - 0.0 - - - - - - -
02/01:00pm 19.4 S 7 11 1019.4 - 0.0 - - - - - - -
02/12:30pm 19.4 SSE 6 9 1019.7 - 0.0 - - - - - - -
02/12:00pm 18.9 ESE 7 12 1020.3 - 0.0 - - - - - - -
02/11:30am 18.7 SE 8 11 1020.5 - 0.0 - - - - - - -
02/11:00am 18.1 E 8 13 1021.0 - 0.0 - - - - - - -
02/10:30am 17.3 E 10 14 1021.3 - 0.0 - - - - - - -
02/10:00am 16.4 E 12 16 1021.5 - 0.0 - - - - - - -
02/09:30am 15.9 E 13 18 1021.5 - 0.0 - - - - - - -

Other Formats:

Comma delimited format used in spreadsheet applications
http://www.bom.gov.au/fwo/IDW60701/IDW60701.95402.axf

JavaScript Object Notation format (JSON) in row-major order
http://www.bom.gov.au/fwo/IDW60701/IDW60701.95402.json